Flight Track Log - Related Links

Times and Time Zones

All times are in EDT time to prevent confusion due to time zone crossing. See the UAL1074 flight status page for this flight to view local times or setup timezone preferences in your user account.

Time Position Orientation Groundspeed Altitude Reporting Facility
EDT Latitude Longitude Course Direction KTS MPH feet Rate Location/Type
Thu 03:41:15 PM 26.0858 -80.1795 105° East  Level FlightAware Approximate
Thu 03:41:55 PM 26.0750 -80.1344 87° East 170 196 900  Level Miami Center
Thu 03:43:09 PM 26.0783 -80.0719 53° Northeast 187 215 3,300 1,886 Climbing Miami Center
Thu 03:43:40 PM 26.1000 -80.0403 318° Northwest 230 265 4,200 2,283 Climbing Miami Center
Thu 03:44:41 PM 26.1450 -80.0853 290° West 263 303 6,800 2,640 Climbing Miami Center
Thu 03:46:10 PM 26.1803 -80.1950 289° West 281 323 10,800 2,376 Climbing Miami Center
Thu 03:47:10 PM 26.2094 -80.2886 288° West 302 348 12,700 2,319 Climbing Miami Center
Thu 03:48:09 PM 26.2383 -80.3867 289° West 323 372 15,400 2,622 Climbing Miami Center
Thu 03:49:09 PM 26.2711 -80.4919 300° West 356 410 17,900 2,550 Climbing Miami Center
Thu 03:50:09 PM 26.3269 -80.5978 305° West 362 417 20,500 2,250 Climbing Miami Center
Thu 03:51:09 PM 26.3811 -80.6853 306° West 373 429 22,400 1,934 Climbing Miami Center
Thu 03:52:10 PM 26.4475 -80.7872 305° West 378 435 24,400 1,750 Climbing Miami Center
Thu 03:53:09 PM 26.5033 -80.8772 306° West 385 443 25,900 1,412 Climbing Miami Center
Thu 03:54:09 PM 26.5733 -80.9864 305° West 391 450 27,200 1,190 Climbing Miami Center
Thu 03:55:10 PM 26.6314 -81.0792 305° West 397 457 28,300 1,450 Climbing Miami Center
Thu 03:56:09 PM 26.7031 -81.1956 304° West 408 470 30,100 1,500 Climbing Miami Center
Thu 03:57:10 PM 26.7608 -81.2908 306° West 408 470 31,300 1,289 Climbing Miami Center
Thu 03:58:10 PM 26.8344 -81.4053 299° West 408 470 32,700 1,462 Climbing Miami Center
Thu 03:59:09 PM 26.8836 -81.5050 299° West 402 463 34,200 1,613 Climbing Miami Center
Thu 04:00:09 PM 26.9364 -81.6119 299° West 397 457 35,900 893 Climbing Miami Center
Thu 04:01:10 PM 26.9872 -81.7164 300° West 391 450 36,000 50 Climbing Miami Center
Thu 04:02:09 PM 27.0439 -81.8261 289° West 380 437 36,000  Level Miami Center
Thu 04:03:09 PM 27.0797 -81.9419 286° West 380 437 36,000  Level Miami Center
Thu 04:04:09 PM 27.1053 -82.0456 287° West 391 450 36,000  Level Miami Center
Thu 04:05:09 PM 27.1403 -82.1756 284° West 391 450 36,000  Level Miami Center
Thu 04:06:09 PM 27.1633 -82.2792 287° West 391 450 36,000  Level Miami Center
Thu 04:07:09 PM 27.1944 -82.3972 284° West 385 443 36,000  Level Miami Center
Thu 04:08:09 PM 27.2192 -82.5106 287° West 385 443 36,000  Level Miami Center
Thu 04:09:09 PM 27.2522 -82.6289 285° West 385 443 36,000  Level Miami Center
Thu 04:10:10 PM 27.2825 -82.7542 287° West 385 443 36,000  Level Miami Center
Thu 04:11:09 PM 27.3078 -82.8489 286° West 385 443 36,000  Level Miami Center
Thu 04:12:09 PM 27.3436 -82.9886 286° West 385 443 36,000 -50 Level Miami Center
Thu 04:13:10 PM 27.3722 -83.1044 285° West 385 443 35,900  Descending Miami Center
Thu 04:14:10 PM 27.4006 -83.2206 285° West 385 443 36,000 50 Climbing Miami Center
Thu 04:15:09 PM 27.4286 -83.3367 285° West 385 443 36,000 -50 Level Miami Center
Thu 04:16:10 PM 27.4567 -83.4550 285° West 385 443 35,900  Descending Miami Center
Thu 04:17:09 PM 27.4847 -83.5714 286° West 385 443 36,000 50 Climbing Miami Center
Thu 04:18:09 PM 27.5128 -83.6853 285° West 385 443 36,000  Level Miami Center
Thu 04:19:09 PM 27.5406 -83.8017 286° West 385 443 36,000  Level Miami Center
Thu 04:20:09 PM 27.5703 -83.9181 283° West 385 443 36,000  Level Miami Center
Thu 04:21:09 PM 27.5939 -84.0317 285° West 385 443 36,000  Level Miami Center
Thu 04:23:28 PM 27.6564 -84.2886 287° West 384 442 36,000 -30 Level Jacksonville Center
Thu 04:24:27 PM 27.6883 -84.4086 284° West 379 436 35,900  Descending Jacksonville Center
Thu 04:25:27 PM 27.7139 -84.5239 287° West 379 436 36,000 50 Climbing Jacksonville Center
Thu 04:26:27 PM 27.7458 -84.6394 283° West 379 436 36,000  Level Jacksonville Center
Thu 04:27:27 PM 27.7711 -84.7664 285° West 379 436 36,000  Level Jacksonville Center
Thu 04:28:27 PM 27.7986 -84.8819 283° West 385 443 36,000 -50 Level Jacksonville Center
Thu 04:29:27 PM 27.8239 -85.0067 286° West 380 437 35,900  Descending Jacksonville Center
Thu 04:30:27 PM 27.8511 -85.1175 285° West 385 443 36,000 50 Climbing Jacksonville Center
Thu 04:31:27 PM 27.8783 -85.2331 287° West 385 443 36,000  Level Jacksonville Center
Thu 04:32:27 PM 27.9094 -85.3489 291° West 378 435 36,000 -50 Level Jacksonville Center
Thu 04:33:27 PM 27.9450 -85.4556 288° West 378 435 35,900  Descending Jacksonville Center
Thu 04:34:27 PM 27.9800 -85.5786 289° West 384 442 36,000 50 Climbing Jacksonville Center
Thu 04:35:27 PM 28.0131 -85.6875 289° West 384 442 36,000  Level Jacksonville Center
Thu 04:36:27 PM 28.0483 -85.8014 290° West 384 442 36,000 -50 Level Jacksonville Center
Thu 04:37:27 PM 28.0814 -85.9058 287° West 379 436 35,900  Descending Jacksonville Center
Thu 04:38:27 PM 28.1139 -86.0267 290° West 385 443 36,000 50 Climbing Jacksonville Center
Thu 04:39:27 PM 28.1486 -86.1361 289° West 380 437 36,000  Level Jacksonville Center
Thu 04:40:27 PM 28.1833 -86.2503 288° West 380 437 36,000  Level Jacksonville Center
Thu 04:41:28 PM 28.2158 -86.3667 290° West 389 448 36,000  Level Jacksonville Center
Thu 04:42:28 PM 28.2561 -86.4931 286° West 391 450 36,000  Level Jacksonville Center
Thu 04:43:28 PM 28.2842 -86.6025 288° West 386 444 36,000 650 Level Jacksonville Center
Thu 04:44:28 PM 28.3183 -86.7192 289° West 392 451 37,300 1,000 Climbing Jacksonville Center
Thu 04:45:28 PM 28.3525 -86.8314 289° West 384 442 38,000 350 Climbing Jacksonville Center
Thu 04:46:28 PM 28.3886 -86.9483 288° West 384 442 38,000 -30 Level Jacksonville Center
Thu 04:48:51 PM 28.4656 -87.2111 288° West 358 412 37,900 -30 Descending Houston Center
Thu 04:49:51 PM 28.4983 -87.3231 288° West 369 425 37,900 50 Level Houston Center
Thu 04:50:51 PM 28.5311 -87.4375 288° West 371 427 38,000 50 Climbing Houston Center
Thu 04:51:51 PM 28.5639 -87.5497 287° West 357 411 38,000  Level Houston Center
Thu 04:52:51 PM 28.5944 -87.6622 288° West 359 413 38,000  Level Houston Center
Thu 04:53:51 PM 28.6269 -87.7744 287° West 364 419 38,000 -50 Level Houston Center
Thu 04:54:51 PM 28.6547 -87.8753 286° West 372 428 37,900  Descending Houston Center
Thu 04:55:51 PM 28.6850 -87.9925 288° West 403 464 38,000  Climbing Houston Center
Thu 04:56:51 PM 28.7172 -88.1075 295° West 406 467 37,900 -50 Descending Houston Center
Thu 04:57:51 PM 28.7597 -88.2128 303° West 381 438 37,900 50 Level Houston Center
Thu 04:58:51 PM 28.8164 -88.3128 306° West 369 425 38,000  Climbing Houston Center
Thu 04:59:51 PM 28.8794 -88.4106 306° West 375 432 37,900  Descending Houston Center
Thu 05:00:51 PM 28.9422 -88.5083 306° West 380 437 38,000 50 Climbing Houston Center
Thu 05:01:51 PM 29.0028 -88.6039 305° West 380 437 38,000  Level Houston Center
Thu 05:02:51 PM 29.0636 -88.7042 304° West 385 443 38,000  Level Houston Center
Thu 05:03:51 PM 29.1219 -88.8025 306° West 385 443 38,000  Level Houston Center
Thu 05:04:51 PM 29.1847 -88.9031 304° West 385 443 38,000 -50 Level Houston Center
Thu 05:05:51 PM 29.2431 -89.0017 306° West 385 443 37,900  Descending Houston Center
Thu 05:06:51 PM 29.3033 -89.0978 305° West 385 443 38,000  Climbing Houston Center
Thu 05:07:51 PM 29.3636 -89.1964 303° West 385 443 37,900  Descending Houston Center
Thu 05:08:51 PM 29.4217 -89.2975 305° West 385 443 38,000 50 Climbing Houston Center
Thu 05:09:51 PM 29.4839 -89.3986 305° West 385 443 38,000  Level Houston Center
Thu 05:10:51 PM 29.5442 -89.4978 306° West 385 443 38,000  Level Houston Center
Thu 05:11:51 PM 29.6061 -89.5967 304° West 390 449 38,000  Level Houston Center
Thu 05:12:51 PM 29.6661 -89.6983 303° West 390 449 38,000  Level Houston Center
Thu 05:13:51 PM 29.7239 -89.8000 305° West 390 449 38,000 -50 Level Houston Center
Thu 05:14:51 PM 29.7858 -89.9019 305° West 390 449 37,900  Descending Houston Center
Thu 05:15:51 PM 29.8478 -90.0039 314° West 390 449 38,000 50 Climbing Houston Center
Thu 05:16:51 PM 29.9219 -90.0936 313° West 395 455 38,000 -50 Level Houston Center
Thu 05:17:51 PM 29.9958 -90.1861 313° West 395 455 37,900 -50 Descending Houston Center
Thu 05:18:51 PM 30.0700 -90.2786 314° West 395 455 37,900  Level Houston Center
Thu 05:19:51 PM 30.1439 -90.3664 313° West 389 448 37,900  Level Houston Center
Thu 05:20:51 PM 30.2178 -90.4569 313° West 389 448 37,900  Level Houston Center
Thu 05:21:51 PM 30.2917 -90.5475 313° West 384 442 37,900 50 Level Houston Center
Thu 05:22:51 PM 30.3633 -90.6356 312° West 384 442 38,000 50 Climbing Houston Center
Thu 05:23:51 PM 30.4328 -90.7264 314° West 384 442 38,000  Level Houston Center
Thu 05:24:51 PM 30.5086 -90.8175 313° West 384 442 38,000 -50 Level Houston Center
Thu 05:25:51 PM 30.5842 -90.9108 314° West 384 442 37,900  Descending Houston Center
Thu 05:26:51 PM 30.6600 -91.0019 313° West 384 442 38,000 50 Climbing Houston Center
Thu 05:27:51 PM 30.7356 -91.0958 313° West 384 442 38,000  Level Houston Center
Thu 05:28:51 PM 30.8006 -91.1775 312° West 384 442 38,000  Level Houston Center
Thu 05:29:51 PM 30.8739 -91.2739 314° West 389 448 38,000  Level Houston Center
Thu 05:30:51 PM 30.9514 -91.3681 313° West 389 448 38,000  Level Houston Center
Thu 05:31:51 PM 31.0267 -91.4625 313° West 389 448 38,000  Level Houston Center
Thu 05:32:51 PM 31.1017 -91.5567 311° West 389 448 38,000  Level Houston Center
Thu 05:33:51 PM 31.1750 -91.6539 314° West 389 448 38,000  Level Houston Center
Thu 05:34:51 PM 31.2519 -91.7483 313° West 389 448 38,000  Level Houston Center
Thu 05:35:51 PM 31.3250 -91.8408 313° West 389 448 38,000  Level Houston Center
Thu 05:36:51 PM 31.4019 -91.9383 312° West 394 453 38,000  Level Houston Center
Thu 05:37:51 PM 31.4831 -92.0433 312° West 394 453 38,000  Level Houston Center
Thu 05:38:51 PM 31.5578 -92.1408 312° West 399 459 38,000  Level Houston Center
Thu 05:39:51 PM 31.6347 -92.2411 314° West 404 465 38,000  Level Houston Center
Thu 05:41:31 PM 31.7606 -92.3953 311° West 400 460 38,000  Level Fort Worth Center
Thu 05:42:31 PM 31.8333 -92.4939 312° West 400 460 38,000  Level Fort Worth Center
Thu 05:43:31 PM 31.9017 -92.5831 311° West 405 466 38,000  Level Fort Worth Center
Thu 05:44:31 PM 31.9742 -92.6797 312° West 405 466 38,000  Level Fort Worth Center
Thu 05:45:31 PM 32.0467 -92.7764 310° West 399 459 38,000  Level Fort Worth Center
Thu 05:46:31 PM 32.1192 -92.8781 311° West 399 459 38,000  Level Fort Worth Center
Thu 05:47:31 PM 32.1894 -92.9753 311° West 399 459 38,000  Level Fort Worth Center
Thu 05:48:31 PM 32.2617 -93.0725 311° West 399 459 38,000  Level Fort Worth Center
Thu 05:49:31 PM 32.3317 -93.1675 311° West 393 452 38,000  Level Fort Worth Center
Thu 05:50:31 PM 32.4039 -93.2650 310° West 393 452 38,000  Level Fort Worth Center
Thu 05:51:31 PM 32.4761 -93.3675 311° West 399 459 38,000  Level Fort Worth Center
Thu 05:52:31 PM 32.5503 -93.4703 310° West 405 466 38,000  Level Fort Worth Center
Thu 05:53:31 PM 32.6225 -93.5731 310° West 411 473 38,000  Level Fort Worth Center
Thu 05:54:31 PM 32.7008 -93.6858 311° West 411 473 38,000  Level Fort Worth Center
Thu 05:55:31 PM 32.7750 -93.7889 310° West 411 473 38,000  Level Fort Worth Center
Thu 05:56:31 PM 32.8489 -93.8922 310° West 417 480 38,000  Level Fort Worth Center
Thu 05:57:31 PM 32.9206 -93.9958 310° West 417 480 38,000  Level Fort Worth Center
Thu 05:58:31 PM 32.9944 -94.1019 312° West 417 480 38,000  Level Fort Worth Center
Thu 05:59:31 PM 33.0700 -94.2033 309° West 417 480 38,000  Level Fort Worth Center
Thu 06:00:31 PM 33.1417 -94.3097 310° West 417 480 38,000  Level Fort Worth Center
Thu 06:01:31 PM 33.2150 -94.4142 310° West 417 480 38,000  Level Fort Worth Center
Thu 06:02:31 PM 33.2886 -94.5208 311° West 417 480 38,000  Level Fort Worth Center
Thu 06:03:31 PM 33.3639 -94.6228 309° West 417 480 38,000  Level Fort Worth Center
Thu 06:04:31 PM 33.4372 -94.7300 310° West 417 480 38,000  Level Fort Worth Center
Thu 06:05:31 PM 33.5103 -94.8350 310° West 417 480 38,000  Level Fort Worth Center
Thu 06:06:31 PM 33.5856 -94.9425 308° West 417 480 38,000  Level Fort Worth Center
Thu 06:07:31 PM 33.6544 -95.0478 307° West 417 480 38,000  Level Fort Worth Center
Thu 06:08:31 PM 33.7211 -95.1533 311° West 412 474 38,000  Level Fort Worth Center
Thu 06:09:31 PM 33.7958 -95.2564 309° West 412 474 38,000  Level Fort Worth Center
Thu 06:10:31 PM 33.8664 -95.3597 309° West 412 474 38,000  Level Fort Worth Center
Thu 06:11:31 PM 33.9369 -95.4633 310° West 412 474 38,000  Level Fort Worth Center
Thu 06:12:31 PM 34.0094 -95.5669 311° West 412 474 38,000  Level Fort Worth Center
Thu 06:13:31 PM 34.0756 -95.6583 307° West 412 474 38,000  Level Fort Worth Center
Thu 06:14:31 PM 34.1458 -95.7722 309° West 404 465 38,000  Level Fort Worth Center
Thu 06:15:31 PM 34.2161 -95.8764 310° West 398 458 38,000  Level Fort Worth Center
Thu 06:16:31 PM 34.2883 -95.9808 308° West 398 458 38,000  Level Fort Worth Center
Thu 06:17:31 PM 34.3583 -96.0878 310° West 398 458 38,000  Level Fort Worth Center
Thu 06:18:31 PM 34.4325 -96.1947 308° West 408 470 38,000  Level Fort Worth Center
Thu 06:19:31 PM 34.4958 -96.2922 308° West 408 470 38,000  Level Fort Worth Center
Thu 06:20:31 PM 34.5658 -96.3997 309° West 413 475 38,000  Level Fort Worth Center
Thu 06:21:31 PM 34.6375 -96.5075 310° West 413 475 38,000  Level Fort Worth Center
Thu 06:22:31 PM 34.7092 -96.6128 308° West 413 475 38,000  Level Fort Worth Center
Thu 06:23:31 PM 34.7786 -96.7208 309° West 413 475 38,000  Level Fort Worth Center
Thu 06:29:31 PM 35.1936 -97.3550 310° West 392 451 38,000  Level Fort Worth Center
Thu 06:30:31 PM 35.2644 -97.4594 303° West 392 451 38,000  Level Fort Worth Center
Thu 06:31:31 PM 35.3186 -97.5611 314° West 399 459 38,000  Level Fort Worth Center
Thu 06:32:31 PM 35.3956 -97.6581 316° Northwest 404 465 38,000  Level Fort Worth Center
Thu 06:33:31 PM 35.4850 -97.7628 318° Northwest 404 465 38,000  Level Fort Worth Center
Thu 06:35:04 PM 35.6136 -97.9067 316° Northwest 395 455 38,000  Level Kansas City Center
Thu 06:36:04 PM 35.6861 -97.9942 316° Northwest 395 455 38,000  Level Kansas City Center
Thu 06:37:04 PM 35.7647 -98.0872 317° Northwest 395 455 38,000  Level Kansas City Center
Thu 06:38:04 PM 35.8475 -98.1831 316° Northwest 401 461 38,000  Level Kansas City Center
Thu 06:39:04 PM 35.9278 -98.2792 317° Northwest 401 461 38,000  Level Kansas City Center
Thu 06:40:04 PM 36.0106 -98.3731 316° Northwest 401 461 38,000  Level Kansas City Center
Thu 06:41:04 PM 36.0908 -98.4697 316° Northwest 401 461 38,000  Level Kansas City Center
Thu 06:42:04 PM 36.1731 -98.5689 316° Northwest 401 461 38,000  Level Kansas City Center
Thu 06:43:04 PM 36.2550 -98.6658 315° West 406 467 38,000  Level Kansas City Center
Thu 06:44:03 PM 36.3350 -98.7656 318° Northwest 406 467 38,000  Level Kansas City Center
Thu 06:45:03 PM 36.4192 -98.8606 315° West 406 467 38,000  Level Kansas City Center
Thu 06:46:04 PM 36.5011 -98.9633 316° Northwest 411 473 38,000  Level Kansas City Center
Thu 06:47:04 PM 36.5828 -99.0611 316° Northwest 411 473 38,000  Level Kansas City Center
Thu 06:48:04 PM 36.6667 -99.1619 316° Northwest 411 473 38,000  Level Kansas City Center
Thu 06:49:04 PM 36.7483 -99.2603 315° West 411 473 38,000  Level Kansas City Center
Thu 06:50:04 PM 36.8317 -99.3639 314° West 411 473 38,000  Level Kansas City Center
Thu 06:51:04 PM 36.9131 -99.4678 315° West 411 473 38,000  Level Kansas City Center
Thu 06:52:04 PM 36.9942 -99.5694 317° Northwest 411 473 38,000  Level Kansas City Center
Thu 06:53:03 PM 37.0836 -99.6742 315° West 411 473 38,000  Level Kansas City Center
Thu 06:54:04 PM 37.1667 -99.7789 316° Northwest 411 473 38,000  Level Kansas City Center
Thu 06:55:04 PM 37.2400 -99.8675 315° West 411 473 38,000  Level Kansas City Center
Thu 06:56:04 PM 37.3308 -99.9808 315° West 411 473 38,000  Level Kansas City Center
Thu 06:57:04 PM 37.4156 -100.0864 315° West 411 473 38,000  Level Kansas City Center
Thu 06:58:04 PM 37.4903 -100.1811 315° West 417 480 38,000  Level Kansas City Center
Thu 06:59:04 PM 37.5731 -100.2842 315° West 417 480 38,000  Level Kansas City Center
Thu 07:00:04 PM 37.6633 -100.3986 315° West 417 480 38,000  Level Kansas City Center
Thu 07:01:04 PM 37.7478 -100.5053 316° Northwest 417 480 38,000  Level Kansas City Center
Thu 07:02:04 PM 37.8244 -100.6006 313° West 424 488 38,000  Level Kansas City Center
Thu 07:03:04 PM 37.9122 -100.7183 299° West 424 488 38,000  Level Kansas City Center
Thu 07:04:04 PM 37.9661 -100.8414 296° West 418 481 38,000  Level Kansas City Center
Thu 07:06:21 PM 38.0714 -101.1225 296° West 400 460 38,000  Level Denver Center
Thu 07:07:21 PM 38.1239 -101.2611 297° West 395 455 38,000  Level Denver Center
Thu 07:08:21 PM 38.1733 -101.3869 294° West 395 455 38,000  Level Denver Center
Thu 07:09:21 PM 38.2136 -101.5003 296° West 395 455 38,000 -350 Level Denver Center
Thu 07:10:21 PM 38.2678 -101.6394 295° West 395 455 37,300 -800 Descending Denver Center
Thu 07:11:21 PM 38.3169 -101.7711 295° West 395 455 36,400 -900 Descending Denver Center
Thu 07:12:21 PM 38.3661 -101.9056 295° West 411 473 35,500 -900 Descending Denver Center
Thu 07:13:21 PM 38.4106 -102.0272 304° West 422 486 34,600 -950 Descending Denver Center
Thu 07:14:21 PM 38.4806 -102.1608 304° West 412 474 33,600 -900 Descending Denver Center
Thu 07:15:21 PM 38.5456 -102.2842 303° West 425 489 32,800 -850 Descending Denver Center
Thu 07:16:21 PM 38.6106 -102.4106 304° West 425 489 31,900 -900 Descending Denver Center
Thu 07:17:21 PM 38.6686 -102.5214 305° West 425 489 31,000 -950 Descending Denver Center
Thu 07:18:21 PM 38.7419 -102.6533 305° West 425 489 30,000 -500 Descending Denver Center
Thu 07:19:21 PM 38.8086 -102.7747 303° West 425 489 30,000  Level Denver Center
Thu 07:20:21 PM 38.8708 -102.8997 303° West 420 483 30,000 -400 Level Denver Center
Thu 07:21:21 PM 38.9353 -103.0272 304° West 425 489 29,200 -900 Descending Denver Center
Thu 07:22:21 PM 38.9994 -103.1494 303° West 420 483 28,200 -950 Descending Denver Center
Thu 07:23:21 PM 39.0569 -103.2644 303° West 427 491 27,300 -950 Descending Denver Center
Thu 07:24:21 PM 39.1208 -103.3900 304° West 422 486 26,300 -1,000 Descending Denver Center
Thu 07:25:21 PM 39.1822 -103.5078 303° West 417 480 25,300 -1,450 Descending Denver Center
Thu 07:26:21 PM 39.2436 -103.6286 303° West 411 473 23,400 -2,050 Descending Denver Center
Thu 07:27:21 PM 39.3006 -103.7417 302° West 382 440 21,200 -2,000 Descending Denver Center
Thu 07:28:21 PM 39.3531 -103.8497 303° West 371 427 19,400 -1,100 Descending Denver Center
Thu 07:29:21 PM 39.4056 -103.9525 277° West 352 405 19,000 -1,050 Descending Denver Center
Thu 07:30:21 PM 39.4167 -104.0783 269° West 321 369 17,300 -1,900 Descending Denver Center
Thu 07:31:21 PM 39.4147 -104.1886 263° West 309 356 15,200 -1,850 Descending Denver Center
Thu 07:32:21 PM 39.4042 -104.2964 265° West 309 356 13,600 -1,350 Descending Denver Center
Thu 07:33:21 PM 39.3978 -104.3989 280° West 304 350 12,500 -1,200 Descending Denver Center
Thu 07:34:21 PM 39.4097 -104.4872 302° West 273 314 11,200 -750 Descending Denver Center
Thu 07:35:21 PM 39.4464 -104.5642 306° West 249 287 11,000 -791 Descending Denver Center
Thu 07:35:52 PM 39.4667 -104.6000 330° Northwest 251 289 10,000 -1,319 Descending Denver TRACON
Thu 07:36:52 PM 39.5333 -104.6500 349° North 241 277 9,000 -500 Descending Denver TRACON
Thu 07:37:52 PM 39.6000 -104.6667 360° North 237 273 9,000 -150 Level Denver TRACON
Thu 07:38:52 PM 39.6500 -104.6667 360° North 232 267 8,700 -300 Descending Denver TRACON

Login

Don't have an account? Register now (free) for customized features, flight alerts, and more!